Airfield :
LOGIN :

Register | Disclaimer

   EN    FR    IT 

 










Legend :    VFR   Marginal VFR   IFR   Intensive IFR   Very Intensive IFR
Visi :
Ceiling :
>= 8 km
>= 3000ft
5 to 8 km
1000 to 3000 ft
1500m to 5 km
500 to 1000 ft
800 to 1500m
200 to 500 ft
< 800m
< 200 ft
Symbols :   Thunderstorms  Fog  Heavy snow  Heavy precipitations  Wind > 20 kt
SIGMETs :     Misc.  Thunderstorms  Icing  Turbulence  Mountain Waves  Volcanic Ashes






- Airport Elevation : 374 ft
- IATA code : LIS


LPPT - Lisboa Portela

CURRENT METAR :
  • 152330Z 20006KT 8000 -RA FEW004 BKN006 13/13 Q1004 REDZ

EXPIRED METARs :
  • 152300Z 21009KT 6000 DZ BKN006 13/12 Q1005
  • 152230Z 23013KT 190V250 4000 RADZ SCT004 BKN008 14/13 Q1005
  • 152200Z 18015KT 8000 -SHRA FEW005 BKN008 FEW020TCU 14/14 Q1005
  • 152130Z 17014KT 9999 -RA FEW006 SCT008 BKN012 15/14 Q1005
  • 152100Z 18014KT 9999 FEW006 BKN010 14/14 Q1006

TAF TAF LPPT
Valid from the 15 at 18:00 until the 17 at 00:00 UTC


151700Z 1518/1624 19015KT 6000 -RA SCT005 BKN012
TEMPO 1518/1609 19018G30KT 2000 RADZ BR SCT002 BKN005
PROB30
TEMPO 1521/1608 1200 DZ BR BKN003
BECMG 1606/1609 32010KT
BECMG 1609/1611 9999 NSW SCT018 SCT045
TEMPO 1611/1620 32015G25KT 5000 SHRA BKN015 FEW020CB
PROB30
TEMPO 1611/1620 3000 TSRA SCT018CB



MET'MAP, your aeronautical weather chart ! - Copyright ORBIFLY December 2007 - Disclaimer

ORBIFLY MET'MAP TEAM :

Programming & Development : Alexandra Zaïnal
Concept & original design : Baudouin d'Aumeries
Assistance for programming : Marc-Olivier Méhu
Technical & hardware support : Manuel Goepfert

Contact : metmap@orbifly.com




SOURCES & CREDITS :

   NOAA